Terminal Aerodrome Forecast
Issued by NWS

Current Version | Previous Version | Text Only | Print | Product List | Glossary Off
Versions: 1 2 3 4 5 6 7 8 9 10 11 12 13 14 15 16 17 18 19 20

000
FTUS41 KPBZ 011720
TAFHLG
TAF
KHLG 011720Z 0118/0218 28008KT P6SM BKN035
     FM020900 VRB03KT 1SM BR BKN008
     FM021000 VRB03KT 1/2SM FG BKN004
     FM021400 23002KT 3SM BR SCT010 BKN120
     FM021700 VRB03KT P6SM BKN050=

USA.gov is the U.S. government's official web portal to all federal, state and local government web resources and services.